sensor_id;sensor_type;location;lat;lon;timestamp;pressure;altitude;pressure_sealevel;temperature;humidity
9257;BME280;4665;51.368;6.782;2023-05-01T00:01:59;101445.25;;;10.58;100.00
9257;BME280;4665;51.368;6.782;2023-05-01T00:04:26;101443.72;;;10.56;100.00
9257;BME280;4665;51.368;6.782;2023-05-01T00:06:51;101437.97;;;10.50;100.00
9257;BME280;4665;51.368;6.782;2023-05-01T00:09:16;101434.88;;;10.45;100.00
9257;BME280;4665;51.368;6.782;2023-05-01T00:11:42;101432.34;;;10.44;100.00
9257;BME280;4665;51.368;6.782;2023-05-01T00:14:07;101429.84;;;10.42;100.00
9257;BME280;4665;51.368;6.782;2023-05-01T00:16:33;101421.41;;;10.37;100.00
9257;BME280;4665;51.368;6.782;2023-05-01T00:19:00;101428.44;;;10.38;100.00
9257;BME280;4665;51.368;6.782;2023-05-01T00:21:25;101423.22;;;10.37;100.00
9257;BME280;4665;51.368;6.782;2023-05-01T00:23:52;101407.94;;;10.29;100.00
9257;BME280;4665;51.368;6.782;2023-05-01T00:26:18;101413.53;;;10.26;100.00
9257;BME280;4665;51.368;6.782;2023-05-01T00:28:43;101417.44;;;10.22;100.00
9257;BME280;4665;51.368;6.782;2023-05-01T00:31:09;101412.50;;;10.17;100.00
9257;BME280;4665;51.368;6.782;2023-05-01T00:33:34;101416.28;;;10.15;100.00
9257;BME280;4665;51.368;6.782;2023-05-01T00:36:00;101401.38;;;10.02;100.00
9257;BME280;4665;51.368;6.782;2023-05-01T00:38:25;101410.47;;;10.00;100.00
9257;BME280;4665;51.368;6.782;2023-05-01T00:40:50;101405.31;;;9.98;100.00
9257;BME280;4665;51.368;6.782;2023-05-01T00:43:16;101398.56;;;9.94;100.00
9257;BME280;4665;51.368;6.782;2023-05-01T00:45:43;101398.84;;;9.91;100.00
9257;BME280;4665;51.368;6.782;2023-05-01T00:48:09;101400.34;;;9.84;100.00
9257;BME280;4665;51.368;6.782;2023-05-01T00:50:35;101400.22;;;9.85;100.00
9257;BME280;4665;51.368;6.782;2023-05-01T00:53:01;101389.16;;;9.80;100.00
9257;BME280;4665;51.368;6.782;2023-05-01T00:55:27;101384.75;;;9.69;100.00
9257;BME280;4665;51.368;6.782;2023-05-01T00:57:53;101383.06;;;9.68;100.00
9257;BME280;4665;51.368;6.782;2023-05-01T01:00:19;101378.28;;;9.62;100.00
9257;BME280;4665;51.368;6.782;2023-05-01T01:02:47;101380.22;;;9.60;100.00
9257;BME280;4665;51.368;6.782;2023-05-01T01:05:13;101378.56;;;9.59;100.00
9257;BME280;4665;51.368;6.782;2023-05-01T01:07:50;101377.97;;;9.56;100.00
9257;BME280;4665;51.368;6.782;2023-05-01T01:10:28;101375.47;;;9.54;100.00
9257;BME280;4665;51.368;6.782;2023-05-01T01:13:13;101364.25;;;9.51;100.00
9257;BME280;4665;51.368;6.782;2023-05-01T01:15:48;101371.50;;;9.48;100.00
9257;BME280;4665;51.368;6.782;2023-05-01T01:18:33;101362.56;;;9.50;100.00
9257;BME280;4665;51.368;6.782;2023-05-01T01:21:10;101361.03;;;9.47;100.00
9257;BME280;4665;51.368;6.782;2023-05-01T01:23:42;101352.72;;;9.40;100.00
9257;BME280;4665;51.368;6.782;2023-05-01T01:26:44;101349.66;;;9.45;100.00
9257;BME280;4665;51.368;6.782;2023-05-01T01:35:17;101343.03;;;9.39;100.00
9257;BME280;4665;51.368;6.782;2023-05-01T01:37:50;101342.91;;;9.41;100.00
9257;BME280;4665;51.368;6.782;2023-05-01T01:40:24;101343.88;;;9.40;100.00
9257;BME280;4665;51.368;6.782;2023-05-01T01:42:58;101338.84;;;9.37;100.00
9257;BME280;4665;51.368;6.782;2023-05-01T01:45:35;101335.34;;;9.36;100.00
9257;BME280;4665;51.368;6.782;2023-05-01T01:48:02;101333.78;;;9.34;100.00
9257;BME280;4665;51.368;6.782;2023-05-01T01:50:30;101332.81;;;9.35;100.00
9257;BME280;4665;51.368;6.782;2023-05-01T01:52:59;101329.44;;;9.33;100.00
9257;BME280;4665;51.368;6.782;2023-05-01T01:55:28;101322.72;;;9.29;100.00
9257;BME280;4665;51.368;6.782;2023-05-01T01:57:57;101325.38;;;9.29;100.00
9257;BME280;4665;51.368;6.782;2023-05-01T02:00:23;101322.72;;;9.29;100.00
9257;BME280;4665;51.368;6.782;2023-05-01T02:02:49;101319.19;;;9.28;100.00
9257;BME280;4665;51.368;6.782;2023-05-01T02:05:16;101319.59;;;9.23;100.00
9257;BME280;4665;51.368;6.782;2023-05-01T02:07:46;101309.34;;;9.19;100.00
9257;BME280;4665;51.368;6.782;2023-05-01T02:10:14;101308.53;;;9.18;100.00
9257;BME280;4665;51.368;6.782;2023-05-01T02:12:50;101305.16;;;9.16;100.00
9257;BME280;4665;51.368;6.782;2023-05-01T02:15:17;101312.16;;;9.17;100.00
9257;BME280;4665;51.368;6.782;2023-05-01T02:17:43;101305.31;;;9.15;100.00
9257;BME280;4665;51.368;6.782;2023-05-01T02:20:10;101300.22;;;9.12;100.00
9257;BME280;4665;51.368;6.782;2023-05-01T02:22:38;101290.97;;;9.06;100.00
9257;BME280;4665;51.368;6.782;2023-05-01T02:25:06;101290.00;;;9.07;100.00
9257;BME280;4665;51.368;6.782;2023-05-01T02:27:39;101289.03;;;9.08;100.00
9257;BME280;4665;51.368;6.782;2023-05-01T02:30:06;101286.50;;;9.06;100.00
9257;BME280;4665;51.368;6.782;2023-05-01T02:32:32;101289.03;;;9.08;100.00
9257;BME280;4665;51.368;6.782;2023-05-01T02:34:57;101279.63;;;9.04;100.00
9257;BME280;4665;51.368;6.782;2023-05-01T02:37:23;101281.19;;;9.06;100.00
9257;BME280;4665;51.368;6.782;2023-05-01T02:39:49;101278.53;;;9.06;100.00
9257;BME280;4665;51.368;6.782;2023-05-01T02:42:16;101268.88;;;9.05;100.00
9257;BME280;4665;51.368;6.782;2023-05-01T02:44:52;101264.41;;;9.06;100.00
9257;BME280;4665;51.368;6.782;2023-05-01T02:47:21;101262.72;;;9.05;100.00
9257;BME280;4665;51.368;6.782;2023-05-01T02:49:48;101262.16;;;9.01;100.00
9257;BME280;4665;51.368;6.782;2023-05-01T02:52:16;101263.25;;;8.99;100.00
9257;BME280;4665;51.368;6.782;2023-05-01T02:54:43;101261.56;;;8.98;100.00
9257;BME280;4665;51.368;6.782;2023-05-01T02:57:12;101255.56;;;8.96;100.00
9257;BME280;4665;51.368;6.782;2023-05-01T02:59:38;101254.84;;;8.94;100.00
9257;BME280;4665;51.368;6.782;2023-05-01T03:02:05;101244.47;;;8.91;100.00
9257;BME280;4665;51.368;6.782;2023-05-01T03:04:31;101254.25;;;8.90;100.00
9257;BME280;4665;51.368;6.782;2023-05-01T03:06:56;101249.22;;;8.87;100.00
9257;BME280;4665;51.368;6.782;2023-05-01T03:09:22;101241.50;;;8.84;100.00
9257;BME280;4665;51.368;6.782;2023-05-01T03:11:47;101247.19;;;8.79;100.00
9257;BME280;4665;51.368;6.782;2023-05-01T03:14:13;101242.16;;;8.76;100.00
9257;BME280;4665;51.368;6.782;2023-05-01T03:16:38;101224.78;;;8.72;100.00
9257;BME280;4665;51.368;6.782;2023-05-01T03:19:04;101237.84;;;8.75;100.00
9257;BME280;4665;51.368;6.782;2023-05-01T03:21:30;101230.69;;;8.76;100.00
9257;BME280;4665;51.368;6.782;2023-05-01T03:23:56;101223.84;;;8.73;100.00
9257;BME280;4665;51.368;6.782;2023-05-01T03:26:21;101223.84;;;8.73;100.00
9257;BME280;4665;51.368;6.782;2023-05-01T03:28:47;101218.09;;;8.68;100.00
9257;BME280;4665;51.368;6.782;2023-05-01T03:31:12;101216.97;;;8.71;100.00
9257;BME280;4665;51.368;6.782;2023-05-01T03:33:38;101192.56;;;8.56;100.00
9257;BME280;4665;51.368;6.782;2023-05-01T03:36:04;101212.88;;;8.67;100.00
9257;BME280;4665;51.368;6.782;2023-05-01T03:38:30;101195.34;;;8.54;100.00
9257;BME280;4665;51.368;6.782;2023-05-01T03:40:56;101201.38;;;8.56;100.00
9257;BME280;4665;51.368;6.782;2023-05-01T03:43:22;101186.09;;;8.49;100.00
9257;BME280;4665;51.368;6.782;2023-05-01T03:45:48;101212.84;;;8.57;100.00
9257;BME280;4665;51.368;6.782;2023-05-01T03:48:14;101179.63;;;8.41;100.00
9257;BME280;4665;51.368;6.782;2023-05-01T03:50:39;101202.63;;;8.52;100.00
9257;BME280;4665;51.368;6.782;2023-05-01T03:53:05;101210.56;;;8.52;100.00
9257;BME280;4665;51.368;6.782;2023-05-01T03:55:30;101196.97;;;8.46;100.00
9257;BME280;4665;51.368;6.782;2023-05-01T03:57:55;101199.19;;;8.40;100.00
9257;BME280;4665;51.368;6.782;2023-05-01T04:00:21;101192.16;;;8.39;100.00
9257;BME280;4665;51.368;6.782;2023-05-01T04:02:46;101174.22;;;8.32;100.00
9257;BME280;4665;51.368;6.782;2023-05-01T04:05:12;101176.75;;;8.33;100.00
9257;BME280;4665;51.368;6.782;2023-05-01T04:07:39;101191.44;;;8.37;100.00
9257;BME280;4665;51.368;6.782;2023-05-01T04:10:04;101184.56;;;8.35;100.00
9257;BME280;4665;51.368;6.782;2023-05-01T04:12:32;101192.16;;;8.39;100.00
9257;BME280;4665;51.368;6.782;2023-05-01T04:14:57;101182.06;;;8.33;100.00
9257;BME280;4665;51.368;6.782;2023-05-01T04:17:23;101199.41;;;8.37;100.00
9257;BME280;4665;51.368;6.782;2023-05-01T04:19:49;101165.22;;;8.23;100.00
9257;BME280;4665;51.368;6.782;2023-05-01T04:22:14;101192.38;;;8.27;100.00
9257;BME280;4665;51.368;6.782;2023-05-01T04:24:40;101199.47;;;8.26;100.00
9257;BME280;4665;51.368;6.782;2023-05-01T04:27:05;101191.75;;;8.23;100.00
9257;BME280;4665;51.368;6.782;2023-05-01T04:29:31;101184.47;;;8.15;100.00
9257;BME280;4665;51.368;6.782;2023-05-01T04:31:56;101192.75;;;8.22;100.00
9257;BME280;4665;51.368;6.782;2023-05-01T04:34:21;101195.53;;;8.20;100.00
9257;BME280;4665;51.368;6.782;2023-05-01T04:36:47;101187.81;;;8.17;100.00
9257;BME280;4665;51.368;6.782;2023-05-01T04:39:13;101190.31;;;8.19;100.00
9257;BME280;4665;51.368;6.782;2023-05-01T04:41:38;101181.81;;;8.15;100.00
9257;BME280;4665;51.368;6.782;2023-05-01T04:44:04;101176.59;;;8.14;100.00
9257;BME280;4665;51.368;6.782;2023-05-01T04:46:29;101173.25;;;8.12;100.00
9257;BME280;4665;51.368;6.782;2023-05-01T04:48:54;101186.38;;;8.13;100.00
9257;BME280;4665;51.368;6.782;2023-05-01T04:51:20;101176.66;;;8.02;100.00
9257;BME280;4665;51.368;6.782;2023-05-01T04:53:46;101182.19;;;8.11;100.00
9257;BME280;4665;51.368;6.782;2023-05-01T04:56:12;101178.09;;;8.07;100.00
9257;BME280;4665;51.368;6.782;2023-05-01T04:58:37;101187.22;;;8.14;100.00
9257;BME280;4665;51.368;6.782;2023-05-01T05:01:02;101191.31;;;8.18;100.00
9257;BME280;4665;51.368;6.782;2023-05-01T05:03:28;101186.84;;;8.18;100.00
9257;BME280;4665;51.368;6.782;2023-05-01T05:05:53;101196.22;;;8.22;100.00
9257;BME280;4665;51.368;6.782;2023-05-01T05:08:18;101183.09;;;8.21;100.00
9257;BME280;4665;51.368;6.782;2023-05-01T05:10:44;101166.59;;;8.17;100.00
9257;BME280;4665;51.368;6.782;2023-05-01T05:13:09;101172.22;;;8.24;100.00
9257;BME280;4665;51.368;6.782;2023-05-01T05:15:35;101190.41;;;8.29;100.00
9257;BME280;4665;51.368;6.782;2023-05-01T05:18:00;101197.00;;;8.34;100.00
9257;BME280;4665;51.368;6.782;2023-05-01T05:20:26;101188.06;;;8.35;100.00
9257;BME280;4665;51.368;6.782;2023-05-01T05:22:52;101173.38;;;8.31;100.00
9257;BME280;4665;51.368;6.782;2023-05-01T05:25:17;101186.34;;;8.46;100.00
9257;BME280;4665;51.368;6.782;2023-05-01T05:27:43;101188.09;;;8.56;100.00
9257;BME280;4665;51.368;6.782;2023-05-01T05:30:09;101197.34;;;8.62;100.00
9257;BME280;4665;51.368;6.782;2023-05-01T05:32:34;101195.72;;;8.71;100.00
9257;BME280;4665;51.368;6.782;2023-05-01T05:34:59;101187.34;;;8.75;100.00
9257;BME280;4665;51.368;6.782;2023-05-01T05:37:25;101186.69;;;8.83;100.00
9257;BME280;4665;51.368;6.782;2023-05-01T05:39:51;101189.38;;;8.93;100.00
9257;BME280;4665;51.368;6.782;2023-05-01T05:42:16;101186.19;;;8.99;100.00
9257;BME280;4665;51.368;6.782;2023-05-01T05:44:42;101186.09;;;9.10;100.00
9257;BME280;4665;51.368;6.782;2023-05-01T05:47:07;101182.75;;;9.18;100.00
9257;BME280;4665;51.368;6.782;2023-05-01T05:49:32;101186.66;;;9.23;100.00
9257;BME280;4665;51.368;6.782;2023-05-01T05:51:58;101176.22;;;9.32;100.00
9257;BME280;4665;51.368;6.782;2023-05-01T05:54:23;101177.06;;;9.42;100.00
9257;BME280;4665;51.368;6.782;2023-05-01T05:56:48;101187.44;;;9.55;100.00
9257;BME280;4665;51.368;6.782;2023-05-01T05:59:14;101181.19;;;9.65;100.00
9257;BME280;4665;51.368;6.782;2023-05-01T06:01:39;101182.84;;;9.76;100.00
9257;BME280;4665;51.368;6.782;2023-05-01T06:04:06;101182.00;;;9.85;100.00
9257;BME280;4665;51.368;6.782;2023-05-01T06:06:32;101184.53;;;9.97;100.00
9257;BME280;4665;51.368;6.782;2023-05-01T06:08:58;101181.03;;;10.06;100.00
9257;BME280;4665;51.368;6.782;2023-05-01T06:11:24;101184.50;;;10.16;100.00
9257;BME280;4665;51.368;6.782;2023-05-01T06:13:50;101186.31;;;10.25;100.00
9257;BME280;4665;51.368;6.782;2023-05-01T06:16:15;101177.50;;;10.35;100.00
9257;BME280;4665;51.368;6.782;2023-05-01T06:18:41;101176.09;;;10.40;100.00
9257;BME280;4665;51.368;6.782;2023-05-01T06:21:06;101178.16;;;10.46;100.00
9257;BME280;4665;51.368;6.782;2023-05-01T06:23:31;101178.59;;;10.51;100.00
9257;BME280;4665;51.368;6.782;2023-05-01T06:25:58;101175.50;;;10.56;100.00
9257;BME280;4665;51.368;6.782;2023-05-01T06:28:23;101169.75;;;10.61;100.00
9257;BME280;4665;51.368;6.782;2023-05-01T06:30:49;101179.66;;;10.68;100.00
9257;BME280;4665;51.368;6.782;2023-05-01T06:33:14;101179.94;;;10.75;100.00
9257;BME280;4665;51.368;6.782;2023-05-01T06:35:42;101176.38;;;10.84;100.00
9257;BME280;4665;51.368;6.782;2023-05-01T06:38:07;101169.16;;;10.94;100.00
9257;BME280;4665;51.368;6.782;2023-05-01T06:40:32;101177.97;;;11.05;100.00
9257;BME280;4665;51.368;6.782;2023-05-01T06:43:00;101169.09;;;11.14;100.00
9257;BME280;4665;51.368;6.782;2023-05-01T06:45:26;101183.34;;;11.23;100.00
9257;BME280;4665;51.368;6.782;2023-05-01T06:47:51;101174.63;;;11.30;100.00
9257;BME280;4665;51.368;6.782;2023-05-01T06:50:17;101175.38;;;11.41;100.00
9257;BME280;4665;51.368;6.782;2023-05-01T06:52:45;101167.03;;;11.53;100.00
9257;BME280;4665;51.368;6.782;2023-05-01T06:55:10;101178.00;;;11.68;100.00
9257;BME280;4665;51.368;6.782;2023-05-01T06:57:36;101160.75;;;11.80;100.00
9257;BME280;4665;51.368;6.782;2023-05-01T07:00:02;101169.38;;;11.92;100.00
9257;BME280;4665;51.368;6.782;2023-05-01T07:02:27;101177.16;;;12.04;100.00
9257;BME280;4665;51.368;6.782;2023-05-01T07:04:53;101171.13;;;12.19;100.00
9257;BME280;4665;51.368;6.782;2023-05-01T07:07:18;101180.41;;;12.33;100.00
9257;BME280;4665;51.368;6.782;2023-05-01T07:09:43;101165.97;;;12.44;100.00
9257;BME280;4665;51.368;6.782;2023-05-01T07:12:09;101167.69;;;12.53;100.00
9257;BME280;4665;51.368;6.782;2023-05-01T07:14:34;101171.75;;;12.66;100.00
9257;BME280;4665;51.368;6.782;2023-05-01T07:17:00;101172.09;;;12.71;100.00
9257;BME280;4665;51.368;6.782;2023-05-01T07:19:26;101170.81;;;12.75;100.00
9257;BME280;4665;51.368;6.782;2023-05-01T07:21:51;101164.91;;;12.71;100.00
9257;BME280;4665;51.368;6.782;2023-05-01T07:24:17;101168.63;;;12.78;100.00
9257;BME280;4665;51.368;6.782;2023-05-01T07:26:42;101172.81;;;12.81;100.00
9257;BME280;4665;51.368;6.782;2023-05-01T07:29:07;101169.16;;;12.82;100.00
9257;BME280;4665;51.368;6.782;2023-05-01T07:31:33;101173.50;;;12.83;100.00
9257;BME280;4665;51.368;6.782;2023-05-01T07:33:59;101174.38;;;12.83;100.00
9257;BME280;4665;51.368;6.782;2023-05-01T07:36:24;101172.03;;;12.89;100.00
9257;BME280;4665;51.368;6.782;2023-05-01T07:38:49;101154.84;;;12.91;100.00
9257;BME280;4665;51.368;6.782;2023-05-01T07:41:15;101155.88;;;12.98;100.00
9257;BME280;4665;51.368;6.782;2023-05-01T07:43:40;101160.56;;;13.04;100.00
9257;BME280;4665;51.368;6.782;2023-05-01T07:46:05;101148.19;;;13.03;100.00
9257;BME280;4665;51.368;6.782;2023-05-01T07:48:31;101155.41;;;13.11;100.00
9257;BME280;4665;51.368;6.782;2023-05-01T07:51:00;101150.91;;;13.12;100.00
9257;BME280;4665;51.368;6.782;2023-05-01T07:53:26;101133.16;;;13.11;100.00
9257;BME280;4665;51.368;6.782;2023-05-01T07:55:51;101150.75;;;13.21;100.00
9257;BME280;4665;51.368;6.782;2023-05-01T07:58:17;101149.97;;;13.29;100.00
9257;BME280;4665;51.368;6.782;2023-05-01T08:00:43;101151.31;;;13.33;100.00
9257;BME280;4665;51.368;6.782;2023-05-01T08:03:09;101153.84;;;13.43;100.00
9257;BME280;4665;51.368;6.782;2023-05-01T08:05:35;101152.53;;;13.55;100.00
9257;BME280;4665;51.368;6.782;2023-05-01T08:08:00;101140.19;;;13.62;100.00
9257;BME280;4665;51.368;6.782;2023-05-01T08:10:26;101147.53;;;13.68;100.00
9257;BME280;4665;51.368;6.782;2023-05-01T08:12:52;101149.06;;;13.79;100.00
9257;BME280;4665;51.368;6.782;2023-05-01T08:15:18;101156.09;;;13.88;100.00
9257;BME280;4665;51.368;6.782;2023-05-01T08:17:45;101137.34;;;13.88;100.00
9257;BME280;4665;51.368;6.782;2023-05-01T08:20:11;101152.41;;;13.98;100.00
9257;BME280;4665;51.368;6.782;2023-05-01T08:22:36;101138.50;;;13.94;100.00
9257;BME280;4665;51.368;6.782;2023-05-01T08:25:03;101148.41;;;14.02;100.00
9257;BME280;4665;51.368;6.782;2023-05-01T08:27:28;101147.03;;;14.06;100.00
9257;BME280;4665;51.368;6.782;2023-05-01T08:29:54;101155.56;;;14.09;100.00
9257;BME280;4665;51.368;6.782;2023-05-01T08:32:19;101154.41;;;14.12;100.00
9257;BME280;4665;51.368;6.782;2023-05-01T08:34:45;101151.72;;;14.12;100.00
9257;BME280;4665;51.368;6.782;2023-05-01T08:37:11;101151.22;;;14.17;100.00
9257;BME280;4665;51.368;6.782;2023-05-01T08:39:36;101141.34;;;14.09;100.00
9257;BME280;4665;51.368;6.782;2023-05-01T08:42:02;101158.06;;;14.19;100.00
9257;BME280;4665;51.368;6.782;2023-05-01T08:44:29;101151.03;;;14.26;100.00
9257;BME280;4665;51.368;6.782;2023-05-01T08:47:11;101154.03;;;14.31;100.00
9257;BME280;4665;51.368;6.782;2023-05-01T08:49:41;101147.34;;;14.36;100.00
9257;BME280;4665;51.368;6.782;2023-05-01T08:52:06;101147.66;;;14.49;100.00
9257;BME280;4665;51.368;6.782;2023-05-01T08:54:33;101147.78;;;14.64;100.00
9257;BME280;4665;51.368;6.782;2023-05-01T08:57:02;101147.78;;;14.72;100.00
9257;BME280;4665;51.368;6.782;2023-05-01T08:59:29;101150.03;;;14.91;100.00
9257;BME280;4665;51.368;6.782;2023-05-01T09:01:59;101148.78;;;15.10;100.00
9257;BME280;4665;51.368;6.782;2023-05-01T09:04:26;101151.44;;;15.19;100.00
9257;BME280;4665;51.368;6.782;2023-05-01T09:06:53;101154.06;;;15.27;100.00
9257;BME280;4665;51.368;6.782;2023-05-01T09:09:20;101139.28;;;15.31;100.00
9257;BME280;4665;51.368;6.782;2023-05-01T09:11:45;101146.34;;;15.32;100.00
9257;BME280;4665;51.368;6.782;2023-05-01T09:14:11;101142.47;;;15.34;100.00
9257;BME280;4665;51.368;6.782;2023-05-01T09:16:36;101143.59;;;15.40;100.00
9257;BME280;4665;51.368;6.782;2023-05-01T09:19:01;101134.84;;;15.46;100.00
9257;BME280;4665;51.368;6.782;2023-05-01T09:21:27;101138.09;;;15.56;100.00
9257;BME280;4665;51.368;6.782;2023-05-01T09:23:55;101137.41;;;15.63;100.00
9257;BME280;4665;51.368;6.782;2023-05-01T09:26:21;101142.91;;;15.69;100.00
9257;BME280;4665;51.368;6.782;2023-05-01T09:28:47;101141.00;;;15.78;100.00
9257;BME280;4665;51.368;6.782;2023-05-01T09:31:23;101132.94;;;15.78;100.00
9257;BME280;4665;51.368;6.782;2023-05-01T09:33:54;101132.88;;;15.86;100.00
9257;BME280;4665;51.368;6.782;2023-05-01T09:36:21;101132.91;;;16.01;100.00
9257;BME280;4665;51.368;6.782;2023-05-01T09:38:47;101137.50;;;16.15;100.00
9257;BME280;4665;51.368;6.782;2023-05-01T09:41:13;101144.75;;;16.30;100.00
9257;BME280;4665;51.368;6.782;2023-05-01T09:43:38;101135.56;;;16.24;100.00
9257;BME280;4665;51.368;6.782;2023-05-01T09:46:09;101140.94;;;16.24;100.00
9257;BME280;4665;51.368;6.782;2023-05-01T09:48:35;101135.38;;;16.26;100.00
9257;BME280;4665;51.368;6.782;2023-05-01T09:51:25;101134.56;;;16.25;100.00
9257;BME280;4665;51.368;6.782;2023-05-01T09:53:52;101129.47;;;16.30;100.00
9257;BME280;4665;51.368;6.782;2023-05-01T09:56:19;101135.09;;;16.35;100.00
9257;BME280;4665;51.368;6.782;2023-05-01T09:58:45;101122.59;;;16.42;100.00
9257;BME280;4665;51.368;6.782;2023-05-01T10:01:11;101131.59;;;16.50;100.00
9257;BME280;4665;51.368;6.782;2023-05-01T10:03:36;101119.81;;;16.51;100.00
9257;BME280;4665;51.368;6.782;2023-05-01T10:06:02;101133.00;;;16.46;100.00
9257;BME280;4665;51.368;6.782;2023-05-01T10:08:48;101127.31;;;16.40;100.00
9257;BME280;4665;51.368;6.782;2023-05-01T10:11:14;101122.50;;;16.36;100.00
9257;BME280;4665;51.368;6.782;2023-05-01T10:13:40;101129.94;;;16.34;100.00
9257;BME280;4665;51.368;6.782;2023-05-01T10:16:07;101121.66;;;16.35;97.26
9257;BME280;4665;51.368;6.782;2023-05-01T10:18:40;101124.72;;;16.32;100.00
9257;BME280;4665;51.368;6.782;2023-05-01T10:21:07;101128.41;;;16.31;100.00
9257;BME280;4665;51.368;6.782;2023-05-01T10:23:34;101129.44;;;16.45;100.00
9257;BME280;4665;51.368;6.782;2023-05-01T10:26:00;101124.66;;;16.55;100.00
9257;BME280;4665;51.368;6.782;2023-05-01T10:28:26;101130.09;;;16.77;100.00
9257;BME280;4665;51.368;6.782;2023-05-01T10:30:54;101123.25;;;16.89;100.00
9257;BME280;4665;51.368;6.782;2023-05-01T10:33:21;101118.78;;;16.96;100.00
9257;BME280;4665;51.368;6.782;2023-05-01T10:35:54;101117.03;;;17.03;100.00
9257;BME280;4665;51.368;6.782;2023-05-01T10:38:25;101113.25;;;17.19;100.00
9257;BME280;4665;51.368;6.782;2023-05-01T10:40:52;101117.56;;;17.35;100.00
9257;BME280;4665;51.368;6.782;2023-05-01T10:43:30;101115.22;;;17.47;100.00
9257;BME280;4665;51.368;6.782;2023-05-01T10:51:19;101108.50;;;17.58;100.00
9257;BME280;4665;51.368;6.782;2023-05-01T10:53:46;101101.22;;;17.58;100.00
9257;BME280;4665;51.368;6.782;2023-05-01T10:58:56;101103.22;;;17.50;100.00
9257;BME280;4665;51.368;6.782;2023-05-01T11:03:55;101103.03;;;17.51;100.00
9257;BME280;4665;51.368;6.782;2023-05-01T11:06:21;101096.19;;;17.49;100.00
9257;BME280;4665;51.368;6.782;2023-05-01T11:08:47;101092.91;;;17.53;100.00
9257;BME280;4665;51.368;6.782;2023-05-01T11:14:07;101097.53;;;17.59;100.00
9257;BME280;4665;51.368;6.782;2023-05-01T11:21:48;101087.00;;;17.86;99.64
9257;BME280;4665;51.368;6.782;2023-05-01T11:24:14;101090.75;;;17.85;100.00
9257;BME280;4665;51.368;6.782;2023-05-01T11:26:41;101085.59;;;17.90;100.00
9257;BME280;4665;51.368;6.782;2023-05-01T11:29:11;101083.78;;;17.97;100.00
9257;BME280;4665;51.368;6.782;2023-05-01T11:31:37;101087.34;;;18.04;100.00
9257;BME280;4665;51.368;6.782;2023-05-01T11:34:03;101088.81;;;18.07;100.00
9257;BME280;4665;51.368;6.782;2023-05-01T11:36:29;101079.72;;;18.08;89.16
9257;BME280;4665;51.368;6.782;2023-05-01T11:39:13;101087.41;;;18.11;100.00
9257;BME280;4665;51.368;6.782;2023-05-01T11:41:39;101072.06;;;18.12;98.95
9257;BME280;4665;51.368;6.782;2023-05-01T11:44:05;101080.38;;;18.17;89.87
9257;BME280;4665;51.368;6.782;2023-05-01T11:46:31;101075.47;;;18.27;96.12
9257;BME280;4665;51.368;6.782;2023-05-01T11:48:59;101071.59;;;18.36;89.27
9257;BME280;4665;51.368;6.782;2023-05-01T11:51:26;101069.53;;;18.38;83.79
9257;BME280;4665;51.368;6.782;2023-05-01T11:53:58;101069.53;;;18.38;85.22
9257;BME280;4665;51.368;6.782;2023-05-01T11:56:25;101067.69;;;18.45;74.10
9257;BME280;4665;51.368;6.782;2023-05-01T11:58:50;101073.47;;;18.42;72.27
9257;BME280;4665;51.368;6.782;2023-05-01T12:01:15;101075.00;;;18.58;85.59
9257;BME280;4665;51.368;6.782;2023-05-01T12:03:43;101068.19;;;18.62;75.08
9257;BME280;4665;51.368;6.782;2023-05-01T12:06:10;101065.13;;;18.72;78.54
9257;BME280;4665;51.368;6.782;2023-05-01T12:08:41;101066.56;;;18.75;84.19
9257;BME280;4665;51.368;6.782;2023-05-01T12:11:07;101061.41;;;18.73;82.81
9257;BME280;4665;51.368;6.782;2023-05-01T12:13:33;101063.19;;;19.01;66.96
9257;BME280;4665;51.368;6.782;2023-05-01T12:15:59;101062.41;;;19.20;65.43
9257;BME280;4665;51.368;6.782;2023-05-01T12:18:25;101049.53;;;19.22;61.62
9257;BME280;4665;51.368;6.782;2023-05-01T12:20:53;101050.34;;;19.29;56.80
9257;BME280;4665;51.368;6.782;2023-05-01T12:23:30;101045.75;;;19.17;61.39
9257;BME280;4665;51.368;6.782;2023-05-01T12:25:56;101058.84;;;19.13;56.42
9257;BME280;4665;51.368;6.782;2023-05-01T12:28:22;101053.00;;;18.96;56.12
9257;BME280;4665;51.368;6.782;2023-05-01T12:30:48;101054.00;;;18.88;60.67
9257;BME280;4665;51.368;6.782;2023-05-01T12:33:17;101057.28;;;18.77;60.22
9257;BME280;4665;51.368;6.782;2023-05-01T12:35:44;101046.66;;;18.76;66.93
9257;BME280;4665;51.368;6.782;2023-05-01T12:38:20;101042.91;;;18.70;67.21
9257;BME280;4665;51.368;6.782;2023-05-01T12:40:57;101034.84;;;18.77;87.80
9257;BME280;4665;51.368;6.782;2023-05-01T12:43:30;101038.63;;;18.89;82.73
9257;BME280;4665;51.368;6.782;2023-05-01T12:45:56;101032.41;;;18.95;66.06
9257;BME280;4665;51.368;6.782;2023-05-01T12:48:22;101039.91;;;19.00;67.04
9257;BME280;4665;51.368;6.782;2023-05-01T12:50:48;101035.16;;;19.08;72.13
9257;BME280;4665;51.368;6.782;2023-05-01T12:53:26;101035.38;;;19.20;65.02
9257;BME280;4665;51.368;6.782;2023-05-01T12:55:56;101027.06;;;19.28;71.47
9257;BME280;4665;51.368;6.782;2023-05-01T12:58:22;101037.91;;;19.22;65.40
9257;BME280;4665;51.368;6.782;2023-05-01T13:00:52;101032.03;;;19.11;63.52
9257;BME280;4665;51.368;6.782;2023-05-01T13:03:22;101027.03;;;19.02;63.48
9257;BME280;4665;51.368;6.782;2023-05-01T13:08:25;101032.72;;;18.72;59.08
9257;BME280;4665;51.368;6.782;2023-05-01T13:10:52;101037.88;;;18.60;60.55
9257;BME280;4665;51.368;6.782;2023-05-01T13:13:26;101031.81;;;18.51;56.42
9257;BME280;4665;51.368;6.782;2023-05-01T13:15:52;101030.97;;;18.44;57.20
9257;BME280;4665;51.368;6.782;2023-05-01T13:18:17;101029.69;;;18.40;62.67
9257;BME280;4665;51.368;6.782;2023-05-01T13:20:43;101030.09;;;18.37;62.15
9257;BME280;4665;51.368;6.782;2023-05-01T13:23:12;101029.22;;;18.30;61.09
9257;BME280;4665;51.368;6.782;2023-05-01T13:25:37;101027.34;;;18.30;63.86
9257;BME280;4665;51.368;6.782;2023-05-01T13:28:03;101032.56;;;18.32;63.61
9257;BME280;4665;51.368;6.782;2023-05-01T13:30:33;101034.66;;;18.37;69.56
9257;BME280;4665;51.368;6.782;2023-05-01T13:32:58;101037.72;;;18.27;71.87